sensor_id;sensor_type;location;lat;lon;timestamp;P1;durP1;ratioP1;P2;durP2;ratioP2
38653;SDS011;24413;52.450;20.706;2024-03-23T00:54:07;67.60;;;39.97;;
38653;SDS011;24413;52.450;20.706;2024-03-23T00:56:33;72.45;;;43.63;;
38653;SDS011;24413;52.450;20.706;2024-03-23T00:58:58;70.47;;;41.70;;
38653;SDS011;24413;52.450;20.706;2024-03-23T01:01:23;85.13;;;43.08;;
38653;SDS011;24413;52.450;20.706;2024-03-23T01:03:48;80.30;;;43.33;;
38653;SDS011;24413;52.450;20.706;2024-03-23T01:06:14;81.75;;;45.35;;
38653;SDS011;24413;52.450;20.706;2024-03-23T01:08:39;85.00;;;44.78;;
38653;SDS011;24413;52.450;20.706;2024-03-23T01:11:04;82.38;;;45.33;;
38653;SDS011;24413;52.450;20.706;2024-03-23T01:13:29;83.50;;;46.33;;
38653;SDS011;24413;52.450;20.706;2024-03-23T01:15:55;83.45;;;44.63;;
38653;SDS011;24413;52.450;20.706;2024-03-23T01:18:21;83.70;;;47.58;;
38653;SDS011;24413;52.450;20.706;2024-03-23T01:20:46;93.90;;;47.13;;
38653;SDS011;24413;52.450;20.706;2024-03-23T01:23:12;90.47;;;48.63;;
38653;SDS011;24413;52.450;20.706;2024-03-23T01:25:37;86.55;;;46.03;;
38653;SDS011;24413;52.450;20.706;2024-03-23T01:28:03;88.28;;;48.03;;
38653;SDS011;24413;52.450;20.706;2024-03-23T01:30:28;94.55;;;48.20;;
38653;SDS011;24413;52.450;20.706;2024-03-23T01:32:53;86.70;;;48.22;;
38653;SDS011;24413;52.450;20.706;2024-03-23T01:35:19;85.60;;;47.90;;
38653;SDS011;24413;52.450;20.706;2024-03-23T01:37:44;82.70;;;46.28;;
38653;SDS011;24413;52.450;20.706;2024-03-23T01:40:10;92.88;;;49.05;;
38653;SDS011;24413;52.450;20.706;2024-03-23T01:42:35;105.15;;;53.40;;
38653;SDS011;24413;52.450;20.706;2024-03-23T01:45:01;105.05;;;51.97;;
38653;SDS011;24413;52.450;20.706;2024-03-23T01:47:26;101.88;;;52.15;;
38653;SDS011;24413;52.450;20.706;2024-03-23T01:49:51;103.53;;;53.67;;
38653;SDS011;24413;52.450;20.706;2024-03-23T01:52:17;103.13;;;54.28;;
38653;SDS011;24413;52.450;20.706;2024-03-23T01:54:42;105.65;;;52.40;;
38653;SDS011;24413;52.450;20.706;2024-03-23T01:57:08;99.10;;;53.05;;
38653;SDS011;24413;52.450;20.706;2024-03-23T01:59:34;104.18;;;53.28;;
38653;SDS011;24413;52.450;20.706;2024-03-23T02:01:59;108.63;;;55.13;;
38653;SDS011;24413;52.450;20.706;2024-03-23T02:04:24;98.40;;;53.88;;
38653;SDS011;24413;52.450;20.706;2024-03-23T02:06:50;105.28;;;55.95;;
38653;SDS011;24413;52.450;20.706;2024-03-23T02:09:15;114.38;;;61.08;;
38653;SDS011;24413;52.450;20.706;2024-03-23T02:11:40;112.93;;;58.37;;
38653;SDS011;24413;52.450;20.706;2024-03-23T02:14:05;109.80;;;59.30;;
38653;SDS011;24413;52.450;20.706;2024-03-23T02:16:31;113.18;;;59.33;;
38653;SDS011;24413;52.450;20.706;2024-03-23T02:18:56;121.25;;;60.90;;
38653;SDS011;24413;52.450;20.706;2024-03-23T02:21:21;119.22;;;61.85;;
38653;SDS011;24413;52.450;20.706;2024-03-23T02:23:46;120.70;;;59.23;;
38653;SDS011;24413;52.450;20.706;2024-03-23T02:26:12;122.35;;;61.25;;
38653;SDS011;24413;52.450;20.706;2024-03-23T02:28:38;120.00;;;61.25;;
38653;SDS011;24413;52.450;20.706;2024-03-23T02:31:03;121.28;;;60.75;;
38653;SDS011;24413;52.450;20.706;2024-03-23T02:33:29;131.35;;;62.63;;
38653;SDS011;24413;52.450;20.706;2024-03-23T02:35:57;123.78;;;62.08;;
38653;SDS011;24413;52.450;20.706;2024-03-23T02:38:23;122.90;;;62.10;;
38653;SDS011;24413;52.450;20.706;2024-03-23T02:40:48;117.57;;;60.35;;
38653;SDS011;24413;52.450;20.706;2024-03-23T02:43:13;129.38;;;64.90;;
38653;SDS011;24413;52.450;20.706;2024-03-23T02:45:38;126.33;;;63.40;;
38653;SDS011;24413;52.450;20.706;2024-03-23T02:48:04;129.55;;;64.10;;
38653;SDS011;24413;52.450;20.706;2024-03-23T02:50:29;127.47;;;65.90;;
38653;SDS011;24413;52.450;20.706;2024-03-23T02:52:54;130.32;;;66.80;;
38653;SDS011;24413;52.450;20.706;2024-03-23T02:55:20;126.63;;;67.63;;
38653;SDS011;24413;52.450;20.706;2024-03-23T02:57:45;142.07;;;70.33;;
38653;SDS011;24413;52.450;20.706;2024-03-23T03:00:10;153.47;;;73.73;;
38653;SDS011;24413;52.450;20.706;2024-03-23T03:02:36;138.75;;;70.80;;
38653;SDS011;24413;52.450;20.706;2024-03-23T03:05:02;134.27;;;70.50;;
38653;SDS011;24413;52.450;20.706;2024-03-23T03:07:29;125.18;;;69.03;;
38653;SDS011;24413;52.450;20.706;2024-03-23T03:09:55;138.63;;;73.00;;
38653;SDS011;24413;52.450;20.706;2024-03-23T03:12:20;143.40;;;70.63;;
38653;SDS011;24413;52.450;20.706;2024-03-23T03:14:45;143.43;;;69.78;;
38653;SDS011;24413;52.450;20.706;2024-03-23T03:17:10;145.35;;;73.72;;
38653;SDS011;24413;52.450;20.706;2024-03-23T03:19:36;136.13;;;69.60;;
38653;SDS011;24413;52.450;20.706;2024-03-23T03:22:01;135.20;;;68.37;;
38653;SDS011;24413;52.450;20.706;2024-03-23T03:24:26;135.98;;;73.53;;
38653;SDS011;24413;52.450;20.706;2024-03-23T03:26:51;138.80;;;70.55;;
38653;SDS011;24413;52.450;20.706;2024-03-23T03:29:17;131.52;;;67.03;;
38653;SDS011;24413;52.450;20.706;2024-03-23T03:31:42;131.02;;;65.28;;
38653;SDS011;24413;52.450;20.706;2024-03-23T03:34:08;127.80;;;64.78;;
38653;SDS011;24413;52.450;20.706;2024-03-23T03:36:33;117.32;;;67.22;;
38653;SDS011;24413;52.450;20.706;2024-03-23T03:38:58;123.40;;;66.10;;
38653;SDS011;24413;52.450;20.706;2024-03-23T03:41:24;127.03;;;67.60;;
38653;SDS011;24413;52.450;20.706;2024-03-23T03:43:49;125.45;;;65.75;;
38653;SDS011;24413;52.450;20.706;2024-03-23T03:46:14;138.80;;;66.22;;
38653;SDS011;24413;52.450;20.706;2024-03-23T03:48:39;134.30;;;66.47;;
38653;SDS011;24413;52.450;20.706;2024-03-23T03:51:05;143.68;;;68.07;;
38653;SDS011;24413;52.450;20.706;2024-03-23T03:53:30;132.90;;;68.20;;
38653;SDS011;24413;52.450;20.706;2024-03-23T03:55:56;153.50;;;71.82;;
38653;SDS011;24413;52.450;20.706;2024-03-23T03:58:21;152.48;;;72.07;;
38653;SDS011;24413;52.450;20.706;2024-03-23T04:00:46;150.35;;;75.53;;
38653;SDS011;24413;52.450;20.706;2024-03-23T04:03:12;161.47;;;80.60;;
38653;SDS011;24413;52.450;20.706;2024-03-23T04:05:37;168.90;;;80.00;;
38653;SDS011;24413;52.450;20.706;2024-03-23T04:08:03;166.75;;;79.82;;
38653;SDS011;24413;52.450;20.706;2024-03-23T04:10:29;168.70;;;80.97;;
38653;SDS011;24413;52.450;20.706;2024-03-23T04:12:54;166.75;;;80.85;;
38653;SDS011;24413;52.450;20.706;2024-03-23T04:15:20;164.13;;;79.07;;
38653;SDS011;24413;52.450;20.706;2024-03-23T04:17:45;167.40;;;83.07;;
38653;SDS011;24413;52.450;20.706;2024-03-23T04:20:10;160.50;;;81.43;;
38653;SDS011;24413;52.450;20.706;2024-03-23T04:22:38;160.23;;;80.43;;
38653;SDS011;24413;52.450;20.706;2024-03-23T04:25:04;174.80;;;81.20;;
38653;SDS011;24413;52.450;20.706;2024-03-23T04:27:32;164.23;;;81.32;;
38653;SDS011;24413;52.450;20.706;2024-03-23T04:29:57;160.38;;;79.63;;
38653;SDS011;24413;52.450;20.706;2024-03-23T04:32:22;161.47;;;80.50;;
38653;SDS011;24413;52.450;20.706;2024-03-23T04:34:47;150.57;;;77.60;;
38653;SDS011;24413;52.450;20.706;2024-03-23T04:37:13;163.48;;;75.82;;
38653;SDS011;24413;52.450;20.706;2024-03-23T04:39:38;158.32;;;75.85;;
38653;SDS011;24413;52.450;20.706;2024-03-23T04:42:03;161.60;;;75.57;;
38653;SDS011;24413;52.450;20.706;2024-03-23T04:44:29;157.70;;;73.78;;
38653;SDS011;24413;52.450;20.706;2024-03-23T04:46:55;161.98;;;77.55;;
38653;SDS011;24413;52.450;20.706;2024-03-23T04:49:21;150.25;;;76.15;;
38653;SDS011;24413;52.450;20.706;2024-03-23T04:51:46;147.53;;;72.63;;
38653;SDS011;24413;52.450;20.706;2024-03-23T04:54:12;144.13;;;69.57;;
38653;SDS011;24413;52.450;20.706;2024-03-23T04:56:37;139.48;;;69.90;;
38653;SDS011;24413;52.450;20.706;2024-03-23T04:59:02;145.57;;;72.90;;
38653;SDS011;24413;52.450;20.706;2024-03-23T05:01:30;149.70;;;77.57;;
38653;SDS011;24413;52.450;20.706;2024-03-23T05:03:56;156.27;;;80.50;;
38653;SDS011;24413;52.450;20.706;2024-03-23T05:06:21;151.32;;;82.60;;
38653;SDS011;24413;52.450;20.706;2024-03-23T05:08:46;158.93;;;81.18;;
38653;SDS011;24413;52.450;20.706;2024-03-23T05:11:11;134.88;;;73.25;;
38653;SDS011;24413;52.450;20.706;2024-03-23T05:13:37;146.83;;;74.03;;
38653;SDS011;24413;52.450;20.706;2024-03-23T05:16:02;164.07;;;85.20;;
38653;SDS011;24413;52.450;20.706;2024-03-23T05:18:27;172.75;;;97.22;;
38653;SDS011;24413;52.450;20.706;2024-03-23T05:20:57;192.45;;;104.68;;
38653;SDS011;24413;52.450;20.706;2024-03-23T05:23:22;160.60;;;84.30;;
38653;SDS011;24413;52.450;20.706;2024-03-23T05:25:48;150.07;;;73.07;;
38653;SDS011;24413;52.450;20.706;2024-03-23T05:28:13;131.93;;;65.78;;
38653;SDS011;24413;52.450;20.706;2024-03-23T05:30:38;138.68;;;69.35;;
38653;SDS011;24413;52.450;20.706;2024-03-23T05:33:05;136.50;;;69.82;;
38653;SDS011;24413;52.450;20.706;2024-03-23T05:35:30;140.35;;;71.18;;
38653;SDS011;24413;52.450;20.706;2024-03-23T05:37:57;140.55;;;69.03;;
38653;SDS011;24413;52.450;20.706;2024-03-23T05:40:23;149.20;;;74.28;;
38653;SDS011;24413;52.450;20.706;2024-03-23T05:42:48;150.13;;;78.40;;
38653;SDS011;24413;52.450;20.706;2024-03-23T05:45:14;154.25;;;81.75;;
38653;SDS011;24413;52.450;20.706;2024-03-23T05:47:39;130.38;;;69.32;;
38653;SDS011;24413;52.450;20.706;2024-03-23T05:50:04;136.88;;;70.00;;
38653;SDS011;24413;52.450;20.706;2024-03-23T05:52:30;129.38;;;68.35;;
38653;SDS011;24413;52.450;20.706;2024-03-23T05:54:55;138.32;;;76.13;;
38653;SDS011;24413;52.450;20.706;2024-03-23T05:57:20;165.05;;;85.80;;
38653;SDS011;24413;52.450;20.706;2024-03-23T05:59:46;211.80;;;99.93;;
38653;SDS011;24413;52.450;20.706;2024-03-23T06:02:11;214.65;;;101.75;;
38653;SDS011;24413;52.450;20.706;2024-03-23T06:04:36;172.88;;;88.28;;
38653;SDS011;24413;52.450;20.706;2024-03-23T06:07:02;149.38;;;77.07;;
38653;SDS011;24413;52.450;20.706;2024-03-23T06:09:27;138.02;;;75.03;;
38653;SDS011;24413;52.450;20.706;2024-03-23T06:11:52;125.50;;;67.80;;
38653;SDS011;24413;52.450;20.706;2024-03-23T06:14:18;131.80;;;70.95;;
38653;SDS011;24413;52.450;20.706;2024-03-23T06:16:43;130.90;;;74.90;;
38653;SDS011;24413;52.450;20.706;2024-03-23T06:19:08;169.67;;;83.40;;
38653;SDS011;24413;52.450;20.706;2024-03-23T06:21:33;159.15;;;78.18;;
38653;SDS011;24413;52.450;20.706;2024-03-23T06:23:59;141.95;;;73.45;;
38653;SDS011;24413;52.450;20.706;2024-03-23T06:26:24;139.57;;;72.78;;
38653;SDS011;24413;52.450;20.706;2024-03-23T06:28:49;114.53;;;64.70;;
38653;SDS011;24413;52.450;20.706;2024-03-23T06:31:15;121.55;;;70.22;;
38653;SDS011;24413;52.450;20.706;2024-03-23T06:33:40;108.35;;;60.65;;
38653;SDS011;24413;52.450;20.706;2024-03-23T06:36:09;107.50;;;61.88;;
38653;SDS011;24413;52.450;20.706;2024-03-23T06:38:34;110.05;;;58.83;;
38653;SDS011;24413;52.450;20.706;2024-03-23T06:41:02;96.35;;;56.33;;
38653;SDS011;24413;52.450;20.706;2024-03-23T06:43:27;100.97;;;55.95;;
38653;SDS011;24413;52.450;20.706;2024-03-23T06:45:53;89.60;;;56.03;;
38653;SDS011;24413;52.450;20.706;2024-03-23T06:48:19;99.95;;;55.20;;
38653;SDS011;24413;52.450;20.706;2024-03-23T06:50:44;88.43;;;52.05;;
38653;SDS011;24413;52.450;20.706;2024-03-23T06:53:11;90.75;;;53.53;;
38653;SDS011;24413;52.450;20.706;2024-03-23T06:55:36;85.95;;;53.40;;
38653;SDS011;24413;52.450;20.706;2024-03-23T06:58:01;78.77;;;50.40;;
38653;SDS011;24413;52.450;20.706;2024-03-23T07:00:27;92.00;;;57.42;;
38653;SDS011;24413;52.450;20.706;2024-03-23T07:02:52;74.10;;;46.80;;
38653;SDS011;24413;52.450;20.706;2024-03-23T07:05:18;74.30;;;47.47;;
38653;SDS011;24413;52.450;20.706;2024-03-23T07:07:43;64.70;;;43.25;;
38653;SDS011;24413;52.450;20.706;2024-03-23T07:10:08;70.72;;;44.67;;
38653;SDS011;24413;52.450;20.706;2024-03-23T07:12:33;60.97;;;42.90;;
38653;SDS011;24413;52.450;20.706;2024-03-23T07:14:58;74.70;;;45.43;;
38653;SDS011;24413;52.450;20.706;2024-03-23T07:17:24;69.00;;;44.15;;
38653;SDS011;24413;52.450;20.706;2024-03-23T07:19:49;74.57;;;46.72;;
38653;SDS011;24413;52.450;20.706;2024-03-23T07:22:14;68.50;;;45.03;;
38653;SDS011;24413;52.450;20.706;2024-03-23T07:24:40;79.55;;;48.42;;
38653;SDS011;24413;52.450;20.706;2024-03-23T07:27:05;77.75;;;48.67;;
38653;SDS011;24413;52.450;20.706;2024-03-23T07:29:34;71.88;;;45.33;;
38653;SDS011;24413;52.450;20.706;2024-03-23T07:32:00;80.60;;;49.83;;
38653;SDS011;24413;52.450;20.706;2024-03-23T07:34:25;66.93;;;42.38;;
38653;SDS011;24413;52.450;20.706;2024-03-23T07:36:50;69.15;;;42.47;;
38653;SDS011;24413;52.450;20.706;2024-03-23T07:39:16;67.43;;;45.50;;
38653;SDS011;24413;52.450;20.706;2024-03-23T07:41:44;74.90;;;48.65;;
38653;SDS011;24413;52.450;20.706;2024-03-23T07:44:09;64.43;;;43.33;;
38653;SDS011;24413;52.450;20.706;2024-03-23T07:46:34;61.47;;;42.38;;
38653;SDS011;24413;52.450;20.706;2024-03-23T07:48:59;96.95;;;57.13;;
38653;SDS011;24413;52.450;20.706;2024-03-23T07:51:25;72.43;;;45.72;;
38653;SDS011;24413;52.450;20.706;2024-03-23T07:53:50;65.93;;;42.63;;
38653;SDS011;24413;52.450;20.706;2024-03-23T07:56:15;63.85;;;42.20;;
38653;SDS011;24413;52.450;20.706;2024-03-23T07:58:41;71.13;;;45.42;;
38653;SDS011;24413;52.450;20.706;2024-03-23T08:01:07;68.72;;;45.53;;
38653;SDS011;24413;52.450;20.706;2024-03-23T08:03:33;71.90;;;44.63;;
38653;SDS011;24413;52.450;20.706;2024-03-23T08:06:20;73.75;;;49.35;;
38653;SDS011;24413;52.450;20.706;2024-03-23T08:08:45;81.47;;;50.10;;
38653;SDS011;24413;52.450;20.706;2024-03-23T08:11:11;77.85;;;49.15;;
38653;SDS011;24413;52.450;20.706;2024-03-23T08:13:38;89.00;;;50.40;;
38653;SDS011;24413;52.450;20.706;2024-03-23T08:16:03;90.10;;;54.47;;
38653;SDS011;24413;52.450;20.706;2024-03-23T08:18:29;90.65;;;56.72;;
38653;SDS011;24413;52.450;20.706;2024-03-23T08:20:58;101.47;;;58.38;;
38653;SDS011;24413;52.450;20.706;2024-03-23T08:23:27;91.75;;;52.55;;
38653;SDS011;24413;52.450;20.706;2024-03-23T08:25:57;86.22;;;51.25;;
38653;SDS011;24413;52.450;20.706;2024-03-23T08:28:22;82.20;;;52.08;;
38653;SDS011;24413;52.450;20.706;2024-03-23T08:30:48;84.95;;;50.80;;
38653;SDS011;24413;52.450;20.706;2024-03-23T08:33:14;82.07;;;50.33;;
38653;SDS011;24413;52.450;20.706;2024-03-23T08:35:39;86.13;;;49.65;;
38653;SDS011;24413;52.450;20.706;2024-03-23T08:38:05;86.70;;;47.72;;
38653;SDS011;24413;52.450;20.706;2024-03-23T08:40:30;78.47;;;47.15;;
38653;SDS011;24413;52.450;20.706;2024-03-23T08:42:55;73.63;;;46.20;;
38653;SDS011;24413;52.450;20.706;2024-03-23T08:45:21;68.55;;;41.63;;
38653;SDS011;24413;52.450;20.706;2024-03-23T08:47:46;88.25;;;49.30;;
38653;SDS011;24413;52.450;20.706;2024-03-23T08:50:11;79.73;;;49.20;;
38653;SDS011;24413;52.450;20.706;2024-03-23T08:52:36;74.05;;;42.72;;
38653;SDS011;24413;52.450;20.706;2024-03-23T08:55:02;81.63;;;45.20;;
38653;SDS011;24413;52.450;20.706;2024-03-23T08:57:27;67.70;;;41.95;;
38653;SDS011;24413;52.450;20.706;2024-03-23T08:59:52;58.75;;;39.45;;
38653;SDS011;24413;52.450;20.706;2024-03-23T09:02:17;72.13;;;38.60;;
38653;SDS011;24413;52.450;20.706;2024-03-23T09:04:43;63.75;;;36.88;;
38653;SDS011;24413;52.450;20.706;2024-03-23T09:07:09;61.88;;;35.92;;
38653;SDS011;24413;52.450;20.706;2024-03-23T09:09:34;69.90;;;38.92;;
38653;SDS011;24413;52.450;20.706;2024-03-23T09:11:59;63.95;;;35.85;;
38653;SDS011;24413;52.450;20.706;2024-03-23T09:14:24;54.80;;;31.73;;
38653;SDS011;24413;52.450;20.706;2024-03-23T09:16:50;47.10;;;31.23;;
38653;SDS011;24413;52.450;20.706;2024-03-23T09:19:16;49.67;;;30.02;;
38653;SDS011;24413;52.450;20.706;2024-03-23T09:34:01;50.95;;;30.55;;
38653;SDS011;24413;52.450;20.706;2024-03-23T09:36:26;52.20;;;32.45;;
38653;SDS011;24413;52.450;20.706;2024-03-23T09:38:52;53.50;;;33.85;;
38653;SDS011;24413;52.450;20.706;2024-03-23T09:41:17;73.65;;;42.47;;
38653;SDS011;24413;52.450;20.706;2024-03-23T09:43:42;82.85;;;48.53;;
38653;SDS011;24413;52.450;20.706;2024-03-23T09:46:08;86.82;;;50.22;;
38653;SDS011;24413;52.450;20.706;2024-03-23T09:48:33;76.97;;;45.40;;
38653;SDS011;24413;52.450;20.706;2024-03-23T09:50:59;65.82;;;40.47;;
38653;SDS011;24413;52.450;20.706;2024-03-23T09:53:24;68.90;;;41.05;;
38653;SDS011;24413;52.450;20.706;2024-03-23T09:55:49;50.45;;;33.85;;
38653;SDS011;24413;52.450;20.706;2024-03-23T09:58:18;38.58;;;28.52;;
38653;SDS011;24413;52.450;20.706;2024-03-23T10:00:43;38.75;;;28.52;;
38653;SDS011;24413;52.450;20.706;2024-03-23T10:03:09;45.20;;;24.77;;
38653;SDS011;24413;52.450;20.706;2024-03-23T10:05:36;41.15;;;27.40;;
38653;SDS011;24413;52.450;20.706;2024-03-23T10:08:19;38.50;;;24.88;;
38653;SDS011;24413;52.450;20.706;2024-03-23T10:10:45;34.88;;;25.17;;
38653;SDS011;24413;52.450;20.706;2024-03-23T10:13:11;31.85;;;23.55;;
38653;SDS011;24413;52.450;20.706;2024-03-23T10:15:39;35.92;;;22.73;;
38653;SDS011;24413;52.450;20.706;2024-03-23T10:18:20;28.17;;;20.40;;
38653;SDS011;24413;52.450;20.706;2024-03-23T10:23:29;30.75;;;21.17;;
38653;SDS011;24413;52.450;20.706;2024-03-23T10:25:55;32.20;;;21.50;;
38653;SDS011;24413;52.450;20.706;2024-03-23T10:28:20;28.67;;;20.47;;
38653;SDS011;24413;52.450;20.706;2024-03-23T10:30:45;28.38;;;18.67;;
38653;SDS011;24413;52.450;20.706;2024-03-23T10:33:10;32.20;;;19.10;;
38653;SDS011;24413;52.450;20.706;2024-03-23T10:35:36;27.63;;;19.13;;
38653;SDS011;24413;52.450;20.706;2024-03-23T10:38:03;32.95;;;18.80;;
38653;SDS011;24413;52.450;20.706;2024-03-23T10:40:29;30.08;;;20.52;;
38653;SDS011;24413;52.450;20.706;2024-03-23T10:42:55;26.35;;;18.02;;
38653;SDS011;24413;52.450;20.706;2024-03-23T10:45:22;26.90;;;18.17;;
38653;SDS011;24413;52.450;20.706;2024-03-23T10:47:47;23.20;;;17.37;;
38653;SDS011;24413;52.450;20.706;2024-03-23T10:50:13;25.95;;;18.33;;
38653;SDS011;24413;52.450;20.706;2024-03-23T10:52:38;24.73;;;16.25;;
38653;SDS011;24413;52.450;20.706;2024-03-23T10:55:04;24.95;;;17.88;;
38653;SDS011;24413;52.450;20.706;2024-03-23T10:57:37;25.00;;;17.88;;
38653;SDS011;24413;52.450;20.706;2024-03-23T11:00:04;27.95;;;16.67;;
38653;SDS011;24413;52.450;20.706;2024-03-23T11:02:30;27.83;;;19.00;;
38653;SDS011;24413;52.450;20.706;2024-03-23T11:04:56;22.73;;;17.05;;
38653;SDS011;24413;52.450;20.706;2024-03-23T11:09:53;22.00;;;16.25;;
38653;SDS011;24413;52.450;20.706;2024-03-23T11:14:48;19.88;;;15.55;;
38653;SDS011;24413;52.450;20.706;2024-03-23T11:17:19;26.02;;;16.25;;
38653;SDS011;24413;52.450;20.706;2024-03-23T11:19:46;28.30;;;16.95;;
38653;SDS011;24413;52.450;20.706;2024-03-23T11:22:20;22.50;;;14.68;;
38653;SDS011;24413;52.450;20.706;2024-03-23T11:27:51;44.27;;;30.43;;
38653;SDS011;24413;52.450;20.706;2024-03-23T11:30:26;25.05;;;18.67;;
38653;SDS011;24413;52.450;20.706;2024-03-23T11:32:52;23.60;;;15.35;;
38653;SDS011;24413;52.450;20.706;2024-03-23T11:35:27;22.05;;;15.13;;
38653;SDS011;24413;52.450;20.706;2024-03-23T11:40:27;19.85;;;15.05;;
38653;SDS011;24413;52.450;20.706;2024-03-23T11:42:55;19.67;;;13.63;;
38653;SDS011;24413;52.450;20.706;2024-03-23T11:45:21;20.20;;;13.05;;
38653;SDS011;24413;52.450;20.706;2024-03-23T11:47:46;18.17;;;13.77;;
38653;SDS011;24413;52.450;20.706;2024-03-23T11:50:18;26.97;;;19.80;;
38653;SDS011;24413;52.450;20.706;2024-03-23T11:52:44;33.92;;;20.02;;
38653;SDS011;24413;52.450;20.706;2024-03-23T11:55:09;19.75;;;15.00;;
38653;SDS011;24413;52.450;20.706;2024-03-23T11:57:34;26.50;;;15.40;;
38653;SDS011;24413;52.450;20.706;2024-03-23T11:59:59;31.10;;;18.65;;
38653;SDS011;24413;52.450;20.706;2024-03-23T12:02:25;18.27;;;13.13;;
38653;SDS011;24413;52.450;20.706;2024-03-23T12:04:50;17.88;;;13.40;;
38653;SDS011;24413;52.450;20.706;2024-03-23T12:07:16;29.17;;;17.17;;
38653;SDS011;24413;52.450;20.706;2024-03-23T12:09:46;27.50;;;16.85;;
38653;SDS011;24413;52.450;20.706;2024-03-23T12:12:17;15.65;;;12.93;;
38653;SDS011;24413;52.450;20.706;2024-03-23T12:14:45;26.13;;;15.77;;
38653;SDS011;24413;52.450;20.706;2024-03-23T12:17:25;21.02;;;14.77;;
38653;SDS011;24413;52.450;20.706;2024-03-23T12:19:51;24.30;;;17.23;;
38653;SDS011;24413;52.450;20.706;2024-03-23T12:22:16;22.55;;;15.48;;
38653;SDS011;24413;52.450;20.706;2024-03-23T12:24:45;22.38;;;13.48;;
38653;SDS011;24413;52.450;20.706;2024-03-23T12:27:10;22.33;;;13.30;;
38653;SDS011;24413;52.450;20.706;2024-03-23T12:29:36;23.73;;;13.77;;
38653;SDS011;24413;52.450;20.706;2024-03-23T12:32:01;26.83;;;13.75;;
38653;SDS011;24413;52.450;20.706;2024-03-23T12:34:27;17.65;;;12.82;;
38653;SDS011;24413;52.450;20.706;2024-03-23T12:36:52;18.52;;;13.18;;
38653;SDS011;24413;52.450;20.706;2024-03-23T12:39:17;20.85;;;12.88;;
38653;SDS011;24413;52.450;20.706;2024-03-23T12:41:43;17.40;;;13.13;;
38653;SDS011;24413;52.450;20.706;2024-03-23T12:44:09;23.40;;;15.30;;
38653;SDS011;24413;52.450;20.706;2024-03-23T12:46:36;26.83;;;17.92;;
38653;SDS011;24413;52.450;20.706;2024-03-23T12:49:02;23.42;;;17.50;;
38653;SDS011;24413;52.450;20.706;2024-03-23T12:51:27;124.80;;;84.63;;
38653;SDS011;24413;52.450;20.706;2024-03-23T12:53:52;43.60;;;24.40;;
38653;SDS011;24413;52.450;20.706;2024-03-23T12:56:17;27.47;;;16.53;;
38653;SDS011;24413;52.450;20.706;2024-03-23T12:58:43;19.13;;;13.50;;
38653;SDS011;24413;52.450;20.706;2024-03-23T13:01:09;17.25;;;13.82;;
38653;SDS011;24413;52.450;20.706;2024-03-23T13:03:37;19.33;;;13.17;;
38653;SDS011;24413;52.450;20.706;2024-03-23T13:06:02;20.60;;;12.77;;
38653;SDS011;24413;52.450;20.706;2024-03-23T13:08:32;19.63;;;14.13;;
38653;SDS011;24413;52.450;20.706;2024-03-23T13:10:58;22.95;;;15.95;;
38653;SDS011;24413;52.450;20.706;2024-03-23T13:13:23;24.37;;;17.77;;
38653;SDS011;24413;52.450;20.706;2024-03-23T13:15:51;42.55;;;26.08;;
38653;SDS011;24413;52.450;20.706;2024-03-23T13:18:17;49.70;;;33.22;;
38653;SDS011;24413;52.450;20.706;2024-03-23T13:20:42;49.13;;;36.63;;
38653;SDS011;24413;52.450;20.706;2024-03-23T13:23:07;40.63;;;27.98;;
38653;SDS011;24413;52.450;20.706;2024-03-23T13:25:33;26.10;;;16.13;;
38653;SDS011;24413;52.450;20.706;2024-03-23T13:27:59;22.65;;;16.90;;
38653;SDS011;24413;52.450;20.706;2024-03-23T13:30:24;26.83;;;18.80;;
38653;SDS011;24413;52.450;20.706;2024-03-23T13:32:49;22.60;;;14.15;;
38653;SDS011;24413;52.450;20.706;2024-03-23T13:35:15;21.00;;;13.48;;
38653;SDS011;24413;52.450;20.706;2024-03-23T13:37:40;16.63;;;12.30;;
38653;SDS011;24413;52.450;20.706;2024-03-23T13:40:06;17.17;;;12.15;;
38653;SDS011;24413;52.450;20.706;2024-03-23T13:42:32;20.40;;;14.07;;
38653;SDS011;24413;52.450;20.706;2024-03-23T13:44:57;20.75;;;15.82;;
38653;SDS011;24413;52.450;20.706;2024-03-23T13:47:22;23.23;;;15.10;;
38653;SDS011;24413;52.450;20.706;2024-03-23T13:49:47;22.90;;;15.18;;
38653;SDS011;24413;52.450;20.706;2024-03-23T13:52:14;29.63;;;16.13;;
38653;SDS011;24413;52.450;20.706;2024-03-23T13:54:39;23.67;;;15.73;;
38653;SDS011;24413;52.450;20.706;2024-03-23T13:57:10;30.23;;;16.77;;
38653;SDS011;24413;52.450;20.706;2024-03-23T13:59:35;21.95;;;17.17;;
38653;SDS011;24413;52.450;20.706;2024-03-23T14:02:01;24.00;;;17.73;;
38653;SDS011;24413;52.450;20.706;2024-03-23T14:04:26;33.63;;;19.00;;
38653;SDS011;24413;52.450;20.706;2024-03-23T14:06:51;22.20;;;17.55;;
38653;SDS011;24413;52.450;20.706;2024-03-23T14:09:16;26.65;;;19.88;;
38653;SDS011;24413;52.450;20.706;2024-03-23T14:11:46;31.92;;;20.75;;
38653;SDS011;24413;52.450;20.706;2024-03-23T14:14:11;43.33;;;27.63;;
38653;SDS011;24413;52.450;20.706;2024-03-23T14:16:37;40.65;;;27.02;;
38653;SDS011;24413;52.450;20.706;2024-03-23T14:19:02;38.08;;;24.38;;
38653;SDS011;24413;52.450;20.706;2024-03-23T14:21:29;37.95;;;23.13;;
38653;SDS011;24413;52.450;20.706;2024-03-23T14:23:55;27.33;;;18.83;;
38653;SDS011;24413;52.450;20.706;2024-03-23T14:26:20;28.95;;;19.00;;
38653;SDS011;24413;52.450;20.706;2024-03-23T14:28:46;27.65;;;18.52;;
38653;SDS011;24413;52.450;20.706;2024-03-23T14:31:11;34.80;;;21.40;;
38653;SDS011;24413;52.450;20.706;2024-03-23T14:33:37;29.07;;;19.27;;
38653;SDS011;24413;52.450;20.706;2024-03-23T14:36:03;28.48;;;19.58;;
38653;SDS011;24413;52.450;20.706;2024-03-23T14:38:28;35.67;;;23.52;;
38653;SDS011;24413;52.450;20.706;2024-03-23T14:40:54;38.60;;;24.58;;
38653;SDS011;24413;52.450;20.706;2024-03-23T14:43:22;32.53;;;22.13;;
38653;SDS011;24413;52.450;20.706;2024-03-23T14:46:09;28.35;;;21.33;;
38653;SDS011;24413;52.450;20.706;2024-03-23T14:48:33;35.33;;;24.92;;
38653;SDS011;24413;52.450;20.706;2024-03-23T14:50:59;33.35;;;25.27;;
38653;SDS011;24413;52.450;20.706;2024-03-23T14:53:24;33.22;;;25.42;;
38653;SDS011;24413;52.450;20.706;2024-03-23T14:55:50;40.53;;;25.15;;
38653;SDS011;24413;52.450;20.706;2024-03-23T14:58:15;33.83;;;24.27;;
38653;SDS011;24413;52.450;20.706;2024-03-23T15:00:41;34.90;;;25.33;;
38653;SDS011;24413;52.450;20.706;2024-03-23T15:03:06;34.88;;;27.00;;
38653;SDS011;24413;52.450;20.706;2024-03-23T15:05:31;39.50;;;28.63;;
38653;SDS011;24413;52.450;20.706;2024-03-23T15:07:56;38.45;;;28.95;;
38653;SDS011;24413;52.450;20.706;2024-03-23T15:10:23;42.65;;;28.75;;
38653;SDS011;24413;52.450;20.706;2024-03-23T15:12:48;41.37;;;30.77;;
38653;SDS011;24413;52.450;20.706;2024-03-23T15:15:14;38.97;;;27.85;;